Time;durP1;ratioP1;P1;durP2;ratioP2;P2;SDS_P1;SDS_P2;PMS_P1;PMS_P2;Temp;Humidity;BMP_temperature;BMP_pressure;BME280_temperature;BME280_humidity;BME280_pressure;Samples;Min_cycle;Max_cycle;Signal;HPM_P1;HPM_P2
2024/01/10 00:01:11;;;;;;;;;;;;;;;;;;5088083;28;19908;-78
2024/01/10 00:03:37;;;;;;;;;;;;;;;;;;5088621;28;19918;-77
2024/01/10 00:06:03;;;;;;;;;;;;;;;;;;5073109;28;19915;-77
2024/01/10 00:08:29;;;;;;;;;;;;;;;;;;5072823;28;19920;-77
2024/01/10 00:10:56;;;;;;;;;;;;;;;;;;5072584;28;19938;-77
2024/01/10 00:13:22;;;;;;;;;;;;;;;;;;5071458;28;19912;-78
2024/01/10 00:15:48;;;;;;;;;;;;;;;;;;5072626;28;19919;-77
2024/01/10 00:18:14;;;;;;;;;;;;;;;;;;5072303;28;19916;-78
2024/01/10 00:20:41;;;;;;;;;;;;;;;;;;5072604;28;19909;-78
2024/01/10 00:23:07;;;;;;;;;;;;;;;;;;5072221;28;20377;-78
2024/01/10 00:25:33;;;;;;;;;;;;;;;;;;5072451;28;19908;-77
2024/01/10 00:27:59;;;;;;;;;;;;;;;;;;5071867;28;20284;-78
2024/01/10 00:30:26;;;;;;;;;;;;;;;;;;5072210;28;19934;-78
2024/01/10 00:32:52;;;;;;;;;;;;;;;;;;5072100;28;19912;-78
2024/01/10 00:35:18;;;;;;;;;;;;;;;;;;5072125;28;19935;-78
2024/01/10 00:37:44;;;;;;;;;;;;;;;;;;5087741;28;19916;-78
2024/01/10 00:40:10;;;;;;;;;;;;;;;;;;5072501;28;19966;-77
2024/01/10 00:42:36;;;;;;;;;;;;;;;;;;5071618;28;19918;-78
2024/01/10 00:45:03;;;;;;;;;;;;;;;;;;5072142;28;20426;-78
2024/01/10 00:47:29;;;;;;;;;;;;;;;;;;5072064;28;19920;-78
2024/01/10 00:49:55;;;;;;;;;;;;;;;;;;5072136;28;19908;-78
2024/01/10 00:52:21;;;;;;;;;;;;;;;;;;5072282;28;19919;-78
2024/01/10 00:54:47;;;;;;;;;;;;;;;;;;5072914;28;19912;-78
2024/01/10 00:57:14;;;;;;;;;;;;;;;;;;5053913;28;19917;-78
2024/01/10 00:59:40;;;;;;;;;;;;;;;;;;5072213;28;19912;-77
2024/01/10 01:02:06;;;;;;;;;;;;;;;;;;5071760;28;19909;-78
2024/01/10 01:04:32;;;;;;;;;;;;;;;;;;5071883;28;19919;-78
2024/01/10 01:06:59;;;;;;;;;;;;;;;;;;5071953;28;19919;-78
2024/01/10 01:09:25;;;;;;;;;;;;;;;;;;5071312;28;20416;-78
2024/01/10 01:11:51;;;;;;;;;;;;;;;;;;5071894;28;19954;-78
2024/01/10 01:14:17;;;;;;;;;;;;;;;;;;5072274;28;19908;-78
2024/01/10 01:16:43;;;;;;;;;;;;;;;;;;5071799;28;20389;-78
2024/01/10 01:19:10;;;;;;;;;;;;;;;;;;5072143;28;19908;-78
2024/01/10 01:21:36;;;;;;;;;;;;;;;;;;5071463;28;19935;-77
2024/01/10 01:24:03;;;;;;;;;;;;;;;;;;5072697;28;19923;-77
2024/01/10 01:26:29;;;;;;;;;;;;;;;;;;5075640;28;19915;-77
2024/01/10 01:28:55;;;;;;;;;;;;;;;;;;5075455;28;19954;-78
2024/01/10 01:31:21;;;;;;;;;;;;;;;;;;5075403;28;19915;-78
2024/01/10 01:33:48;;;;;;;;;;;;;;;;;;5075117;28;19912;-78
2024/01/10 01:36:14;;;;;;;;;;;;;;;;;;5075173;28;19908;-78
2024/01/10 01:38:40;;;;;;;;;;;;;;;;;;5074737;28;19917;-77
2024/01/10 01:41:06;;;;;;;;;;;;;;;;;;5076433;28;19908;-77
2024/01/10 01:43:32;;;;;;;;;;;;;;;;;;5091900;28;19912;-78
2024/01/10 01:45:59;;;;;;;;;;;;;;;;;;5075396;28;19961;-78
2024/01/10 01:48:25;;;;;;;;;;;;;;;;;;5075354;28;19909;-78
2024/01/10 01:50:51;;;;;;;;;;;;;;;;;;5074974;28;20351;-77
2024/01/10 01:53:17;;;;;;;;;;;;;;;;;;5074378;28;19915;-79
2024/01/10 01:55:43;;;;;;;;;;;;;;;;;;5075030;28;19919;-77
2024/01/10 01:58:10;;;;;;;;;;;;;;;;;;5074760;28;19920;-78
2024/01/10 02:00:36;;;;;;;;;;;;;;;;;;5075092;28;19908;-78
2024/01/10 02:03:02;;;;;;;;;;;;;;;;;;5074765;28;19909;-78
2024/01/10 02:05:28;;;;;;;;;;;;;;;;;;5074962;28;19918;-78
2024/01/10 02:07:55;;;;;;;;;;;;;;;;;;5074144;28;19927;-78
2024/01/10 02:10:21;;;;;;;;;;;;;;;;;;5075003;28;19923;-77
2024/01/10 02:12:47;;;;;;;;;;;;;;;;;;5074636;28;19920;-79
2024/01/10 02:15:14;;;;;;;;;;;;;;;;;;5074547;28;20373;-78
2024/01/10 02:17:40;;;;;;;;;;;;;;;;;;5074391;28;19916;-78
2024/01/10 02:20:06;;;;;;;;;;;;;;;;;;5074453;28;20369;-77
2024/01/10 02:22:32;;;;;;;;;;;;;;;;;;5074186;28;19909;-77
2024/01/10 02:24:58;;;;;;;;;;;;;;;;;;5074720;28;19919;-78
2024/01/10 02:27:24;;;;;;;;;;;;;;;;;;5075058;28;19915;-78
2024/01/10 02:29:51;;;;;;;;;;;;;;;;;;5075325;28;20381;-77
2024/01/10 02:32:17;;;;;;;;;;;;;;;;;;5075350;28;19918;-78
2024/01/10 02:34:43;;;;;;;;;;;;;;;;;;5074138;28;19908;-78
2024/01/10 02:37:09;;;;;;;;;;;;;;;;;;5073571;28;19923;-77
2024/01/10 02:39:35;;;;;;;;;;;;;;;;;;5074479;28;19908;-78
2024/01/10 02:42:02;;;;;;;;;;;;;;;;;;5074190;28;19961;-78
2024/01/10 02:44:28;;;;;;;;;;;;;;;;;;5074152;28;20366;-78
2024/01/10 02:46:54;;;;;;;;;;;;;;;;;;5073812;28;19912;-79
2024/01/10 02:49:20;;;;;;;;;;;;;;;;;;5089385;28;20326;-77
2024/01/10 02:51:46;;;;;;;;;;;;;;;;;;5073507;28;19912;-78
2024/01/10 02:54:13;;;;;;;;;;;;;;;;;;5073818;28;20353;-78
2024/01/10 02:56:39;;;;;;;;;;;;;;;;;;5073639;28;19916;-77
2024/01/10 02:59:05;;;;;;;;;;;;;;;;;;5074175;28;19913;-78
2024/01/10 03:01:31;;;;;;;;;;;;;;;;;;5073553;28;19915;-78
2024/01/10 03:03:57;;;;;;;;;;;;;;;;;;5073488;28;19913;-79
2024/01/10 03:06:24;;;;;;;;;;;;;;;;;;5073487;28;19962;-78
2024/01/10 03:08:50;;;;;;;;;;;;;;;;;;5073294;28;19925;-78
2024/01/10 03:11:16;;;;;;;;;;;;;;;;;;5073427;28;20338;-78
2024/01/10 03:13:43;;;;;;;;;;;;;;;;;;5073416;28;19938;-78
2024/01/10 03:16:09;;;;;;;;;;;;;;;;;;5073793;28;19909;-77
2024/01/10 03:18:35;;;;;;;;;;;;;;;;;;5073598;28;19920;-78
2024/01/10 03:21:01;;;;;;;;;;;;;;;;;;5072962;28;19923;-78
2024/01/10 03:23:27;;;;;;;;;;;;;;;;;;5073095;28;20377;-78
2024/01/10 03:25:53;;;;;;;;;;;;;;;;;;5073301;28;19909;-78
2024/01/10 03:28:20;;;;;;;;;;;;;;;;;;5073316;28;19908;-77
2024/01/10 03:30:46;;;;;;;;;;;;;;;;;;5073220;28;19914;-77
2024/01/10 03:33:12;;;;;;;;;;;;;;;;;;5072995;28;19908;-77
2024/01/10 03:35:38;;;;;;;;;;;;;;;;;;5072572;28;19962;-77
2024/01/10 03:38:04;;;;;;;;;;;;;;;;;;5088581;28;19928;-78
2024/01/10 03:40:31;;;;;;;;;;;;;;;;;;5088988;28;19938;-78
2024/01/10 03:42:57;;;;;;;;;;;;;;;;;;5072788;28;19967;-78
2024/01/10 03:45:24;;;;;;;;;;;;;;;;;;5072995;28;19913;-78
2024/01/10 03:47:50;;;;;;;;;;;;;;;;;;5071973;28;19916;-78
2024/01/10 03:50:17;;;;;;;;;;;;;;;;;;5072500;28;19912;-76
2024/01/10 03:52:43;;;;;;;;;;;;;;;;;;5072688;28;19957;-77
2024/01/10 03:55:09;;;;;;;;;;;;;;;;;;5072674;28;19918;-77
2024/01/10 03:57:35;;;;;;;;;;;;;;;;;;5072413;28;19923;-78
2024/01/10 04:00:02;;;;;;;;;;;;;;;;;;5072637;28;19916;-77
2024/01/10 04:02:28;;;;;;;;;;;;;;;;;;5073123;28;19973;-76
2024/01/10 04:04:54;;;;;;;;;;;;;;;;;;5072361;28;19919;-77
2024/01/10 04:07:20;;;;;;;;;;;;;;;;;;5072582;28;19908;-77
2024/01/10 04:09:46;;;;;;;;;;;;;;;;;;5072210;28;19962;-77
2024/01/10 04:12:13;;;;;;;;;;;;;;;;;;5088033;28;19919;-78
2024/01/10 04:14:39;;;;;;;;;;;;;;;;;;5072283;28;19915;-78
2024/01/10 04:17:06;;;;;;;;;;;;;;;;;;5072436;28;19916;-78
2024/01/10 04:19:33;;;;;;;;;;;;;;;;;;5071876;28;20300;-78
2024/01/10 04:21:59;;;;;;;;;;;;;;;;;;5072335;28;20291;-77
2024/01/10 04:24:25;;;;;;;;;;;;;;;;;;5072230;28;19915;-78
2024/01/10 04:26:51;;;;;;;;;;;;;;;;;;5072332;28;19909;-77
2024/01/10 04:29:18;;;;;;;;;;;;;;;;;;5072298;28;20066;-78
2024/01/10 04:31:44;;;;;;;;;;;;;;;;;;5072591;28;19908;-78
2024/01/10 04:34:10;;;;;;;;;;;;;;;;;;5071874;28;19912;-78
2024/01/10 04:36:36;;;;;;;;;;;;;;;;;;5072037;28;19908;-78
2024/01/10 04:39:02;;;;;;;;;;;;;;;;;;5072567;28;19912;-78
2024/01/10 04:41:28;;;;;;;;;;;;;;;;;;5072100;28;19912;-78
2024/01/10 04:43:55;;;;;;;;;;;;;;;;;;5072019;28;19915;-78
2024/01/10 04:46:21;;;;;;;;;;;;;;;;;;5072181;28;19919;-77
2024/01/10 04:48:47;;;;;;;;;;;;;;;;;;5071654;28;20358;-78
2024/01/10 04:51:14;;;;;;;;;;;;;;;;;;5072192;28;19919;-78
2024/01/10 04:53:40;;;;;;;;;;;;;;;;;;5072263;28;19909;-77
2024/01/10 04:56:07;;;;;;;;;;;;;;;;;;5071951;28;19908;-78
2024/01/10 04:58:34;;;;;;;;;;;;;;;;;;5071847;28;20312;-77
2024/01/10 05:01:00;;;;;;;;;;;;;;;;;;5075838;28;20387;-78
2024/01/10 05:03:26;;;;;;;;;;;;;;;;;;5075632;28;19918;-77
2024/01/10 05:05:52;;;;;;;;;;;;;;;;;;5091705;28;19912;-78
2024/01/10 05:08:22;;;;;;;;;;;;;;;;;;5076091;28;20384;-78
2024/01/10 05:10:48;;;;;;;;;;;;;;;;;;5075696;28;19912;-78
2024/01/10 05:13:14;;;;;;;;;;;;;;;;;;5075709;28;19915;-77
2024/01/10 05:15:40;;;;;;;;;;;;;;;;;;5075542;28;19908;-78
2024/01/10 05:18:06;;;;;;;;;;;;;;;;;;5057402;28;19922;-78
2024/01/10 05:20:33;;;;;;;;;;;;;;;;;;5075538;28;19912;-77
2024/01/10 05:23:01;;;;;;;;;;;;;;;;;;5075804;28;19908;-77
2024/01/10 05:25:27;;;;;;;;;;;;;;;;;;5075643;28;19915;-78
2024/01/10 05:27:53;;;;;;;;;;;;;;;;;;5075317;28;19912;-78
2024/01/10 05:30:19;;;;;;;;;;;;;;;;;;5075579;28;19922;-78
2024/01/10 05:32:45;;;;;;;;;;;;;;;;;;5075022;28;19912;-78
2024/01/10 05:35:12;;;;;;;;;;;;;;;;;;5075125;28;19953;-78
2024/01/10 05:37:38;;;;;;;;;;;;;;;;;;5075158;28;19925;-78
2024/01/10 05:40:05;;;;;;;;;;;;;;;;;;5075238;28;19915;-79
2024/01/10 05:42:32;;;;;;;;;;;;;;;;;;5075538;28;19915;-78
2024/01/10 05:44:58;;;;;;;;;;;;;;;;;;5057074;28;19915;-78
2024/01/10 05:47:25;;;;;;;;;;;;;;;;;;5075262;28;19908;-79
2024/01/10 05:49:53;;;;;;;;;;;;;;;;;;5075033;28;19912;-78
2024/01/10 05:52:19;;;;;;;;;;;;;;;;;;5075049;28;19913;-77
2024/01/10 05:54:45;;;;;;;;;;;;;;;;;;5056866;28;19919;-78
2024/01/10 05:57:11;;;;;;;;;;;;;;;;;;5074805;28;19913;-78
2024/01/10 05:59:37;;;;;;;;;;;;;;;;;;5074437;28;20284;-78
2024/01/10 06:02:04;;;;;;;;;;;;;;;;;;5075500;28;19961;-77
2024/01/10 06:04:31;;;;;;;;;;;;;;;;;;5057112;28;19908;-78
2024/01/10 06:06:57;;;;;;;;;;;;;;;;;;5075062;28;19962;-79
2024/01/10 06:09:23;;;;;;;;;;;;;;;;;;5074592;28;20393;-78
2024/01/10 06:11:50;;;;;;;;;;;;;;;;;;5089139;28;19920;-78
2024/01/10 06:14:16;;;;;;;;;;;;;;;;;;5074274;28;20392;-78
2024/01/10 06:16:43;;;;;;;;;;;;;;;;;;5074436;28;19914;-78
2024/01/10 06:19:10;;;;;;;;;;;;;;;;;;5074511;28;19912;-78
2024/01/10 06:21:36;;;;;;;;;;;;;;;;;;5074550;28;19909;-78
2024/01/10 06:24:02;;;;;;;;;;;;;;;;;;5075316;28;19915;-78
2024/01/10 06:26:28;;;;;;;;;;;;;;;;;;5074930;28;19935;-78
2024/01/10 06:28:55;;;;;;;;;;;;;;;;;;5089992;28;19916;-79
2024/01/10 06:31:21;;;;;;;;;;;;;;;;;;5074531;28;19915;-78
2024/01/10 06:33:47;;;;;;;;;;;;;;;;;;5074212;28;19908;-78
2024/01/10 06:36:13;;;;;;;;;;;;;;;;;;5074412;28;19908;-78
2024/01/10 06:38:39;;;;;;;;;;;;;;;;;;5074084;28;20442;-78
2024/01/10 06:41:06;;;;;;;;;;;;;;;;;;5074278;28;19909;-78
2024/01/10 06:43:32;;;;;;;;;;;;;;;;;;5055692;28;19913;-78
2024/01/10 06:45:58;;;;;;;;;;;;;;;;;;5073900;28;19920;-77
2024/01/10 06:48:24;;;;;;;;;;;;;;;;;;5073831;28;19909;-78
2024/01/10 06:50:50;;;;;;;;;;;;;;;;;;5073920;28;20395;-77
2024/01/10 06:53:16;;;;;;;;;;;;;;;;;;5074171;28;19915;-78
2024/01/10 06:55:43;;;;;;;;;;;;;;;;;;5073662;28;19909;-78
2024/01/10 06:58:09;;;;;;;;;;;;;;;;;;5073261;28;20300;-77
2024/01/10 07:00:38;;;;;;;;;;;;;;;;;;5073680;28;19908;-78
2024/01/10 07:03:05;;;;;;;;;;;;;;;;;;5073727;28;19912;-77
2024/01/10 07:05:31;;;;;;;;;;;;;;;;;;5073238;28;19912;-78
2024/01/10 07:07:57;;;;;;;;;;;;;;;;;;5055532;28;20369;-77
2024/01/10 07:10:27;;;;;;;;;;;;;;;;;;5074027;28;20404;-78
2024/01/10 07:12:53;;;;;;;;;;;;;;;;;;5071567;28;20281;-77
2024/01/10 07:15:20;;;;;;;;;;;;;;;;;;5067063;28;19913;-77
2024/01/10 07:17:46;;;;;;;;;;;;;;;;;;5072822;28;20331;-78
2024/01/10 07:20:12;;;;;;;;;;;;;;;;;;5072944;28;19923;-77
2024/01/10 07:22:43;;;;;;;;;;;;;;;;;;5071674;28;19919;-77
2024/01/10 07:25:10;;;;;;;;;;;;;;;;;;5075494;28;19912;-77
2024/01/10 07:27:39;;;;;;;;;;;;;;;;;;5055121;28;19930;-77
2024/01/10 07:30:11;;;;;;;;;;;;;;;;;;5072391;28;19908;-78
2024/01/10 07:32:37;;;;;;;;;;;;;;;;;;5065263;28;19919;-77
2024/01/10 07:35:03;;;;;;;;;;;;;;;;;;5072599;28;20347;-77
2024/01/10 07:37:30;;;;;;;;;;;;;;;;;;5072491;28;19973;-77
2024/01/10 07:39:57;;;;;;;;;;;;;;;;;;5065898;28;19909;-78
2024/01/10 07:42:24;;;;;;;;;;;;;;;;;;5086700;28;20119;-78
2024/01/10 07:44:50;;;;;;;;;;;;;;;;;;5054078;28;19916;-77
2024/01/10 07:47:16;;;;;;;;;;;;;;;;;;5072282;28;20379;-78
2024/01/10 07:49:42;;;;;;;;;;;;;;;;;;5070250;28;19919;-76
2024/01/10 07:52:09;;;;;;;;;;;;;;;;;;5071164;28;19953;-77
2024/01/10 07:54:35;;;;;;;;;;;;;;;;;;5068068;28;20401;-76
2024/01/10 07:57:02;;;;;;;;;;;;;;;;;;5072495;28;19916;-77
2024/01/10 07:59:28;;;;;;;;;;;;;;;;;;5063700;28;19966;-77
2024/01/10 08:01:56;;;;;;;;;;;;;;;;;;5078998;28;19908;-78
2024/01/10 08:04:22;;;;;;;;;;;;;;;;;;5071715;28;19915;-77
2024/01/10 08:06:49;;;;;;;;;;;;;;;;;;5071955;28;19912;-77
2024/01/10 08:09:15;;;;;;;;;;;;;;;;;;5071718;28;19973;-78
2024/01/10 08:11:41;;;;;;;;;;;;;;;;;;5071389;28;19919;-77
2024/01/10 08:14:07;;;;;;;;;;;;;;;;;;5071834;28;19919;-78
2024/01/10 08:16:33;;;;;;;;;;;;;;;;;;5071156;28;20410;-78
2024/01/10 08:19:00;;;;;;;;;;;;;;;;;;5070459;28;20304;-78
2024/01/10 08:21:26;;;;;;;;;;;;;;;;;;5071891;28;19913;-76
2024/01/10 08:23:52;;;;;;;;;;;;;;;;;;5069995;28;19912;-78
2024/01/10 08:26:18;;;;;;;;;;;;;;;;;;5070704;28;19909;-78
2024/01/10 08:28:44;;;;;;;;;;;;;;;;;;5071131;28;19912;-78
2024/01/10 08:31:12;;;;;;;;;;;;;;;;;;5071706;28;19912;-78
2024/01/10 08:33:39;;;;;;;;;;;;;;;;;;5069007;28;19908;-77
2024/01/10 08:36:05;;;;;;;;;;;;;;;;;;5070297;28;19919;-79
2024/01/10 08:38:31;;;;;;;;;;;;;;;;;;5069265;28;20384;-78
2024/01/10 08:40:57;;;;;;;;;;;;;;;;;;5051422;28;20343;-77
2024/01/10 08:43:23;;;;;;;;;;;;;;;;;;5067970;28;19912;-78
2024/01/10 08:45:49;;;;;;;;;;;;;;;;;;5068618;28;19962;-77
2024/01/10 08:48:16;;;;;;;;;;;;;;;;;;5070041;28;19912;-78
2024/01/10 08:50:42;;;;;;;;;;;;;;;;;;5070636;28;19919;-78
2024/01/10 08:53:08;;;;;;;;;;;;;;;;;;5070803;28;19916;-77
2024/01/10 08:55:36;;;;;;;;;;;;;;;;;;5069449;28;19916;-78
2024/01/10 08:58:03;;;;;;;;;;;;;;;;;;5068380;28;19927;-78
2024/01/10 09:00:29;;;;;;;;;;;;;;;;;;5069730;28;19908;-78
2024/01/10 09:02:55;;;;;;;;;;;;;;;;;;5069148;28;20301;-77
2024/01/10 09:05:21;;;;;;;;;;;;;;;;;;5069829;28;19973;-78
2024/01/10 09:07:48;;;;;;;;;;;;;;;;;;5067627;28;19919;-78
2024/01/10 09:10:14;;;;;;;;;;;;;;;;;;5068625;28;19927;-77
2024/01/10 09:12:43;;;;;;;;;;;;;;;;;;5066911;28;20415;-86
2024/01/10 09:15:13;;;;;;;;;;;;;;;;;;5069479;28;19924;-78
2024/01/10 09:17:39;;;;;;;;;;;;;;;;;;5045031;28;19927;-77
2024/01/10 09:20:05;;;;;;;;;;;;;;;;;;5070417;28;19916;-78
2024/01/10 09:22:31;;;;;;;;;;;;;;;;;;5069494;28;20427;-78
2024/01/10 09:25:03;;;;;;;;;;;;;;;;;;5064723;28;19979;-78
2024/01/10 09:27:29;;;;;;;;;;;;;;;;;;5069194;28;19913;-77
2024/01/10 09:29:55;;;;;;;;;;;;;;;;;;5071138;28;19912;-77
2024/01/10 09:32:22;;;;;;;;;;;;;;;;;;5070310;28;19913;-78
2024/01/10 09:34:48;;;;;;;;;;;;;;;;;;5070011;28;19912;-78
2024/01/10 09:37:14;;;;;;;;;;;;;;;;;;5069410;28;19917;-78
2024/01/10 09:39:40;;;;;;;;;;;;;;;;;;5070759;28;19920;-79
2024/01/10 09:42:07;;;;;;;;;;;;;;;;;;5042792;28;19908;-77
2024/01/10 09:44:33;;;;;;;;;;;;;;;;;;5070744;28;20278;-77
2024/01/10 09:46:59;;;;;;;;;;;;;;;;;;5071904;28;19931;-78
2024/01/10 09:49:25;;;;;;;;;;;;;;;;;;5070573;28;19918;-78
2024/01/10 09:51:52;;;;;;;;;;;;;;;;;;5072444;28;19939;-78
2024/01/10 09:54:19;;;;;;;;;;;;;;;;;;5072680;28;19918;-78
2024/01/10 09:56:46;;;;;;;;;;;;;;;;;;5073517;28;19916;-77
2024/01/10 09:59:12;;;;;;;;;;;;;;;;;;5073587;28;19916;-78
2024/01/10 10:01:41;;;;;;;;;;;;;;;;;;5053680;28;19916;-77
2024/01/10 10:04:07;;;;;;;;;;;;;;;;;;5072972;28;19919;-77
2024/01/10 10:06:34;;;;;;;;;;;;;;;;;;5073311;28;19965;-77
2024/01/10 10:09:00;;;;;;;;;;;;;;;;;;5071997;28;20274;-77
2024/01/10 10:11:26;;;;;;;;;;;;;;;;;;5058714;28;19935;-77
2024/01/10 10:13:52;;;;;;;;;;;;;;;;;;5067389;28;19916;-77
2024/01/10 10:16:19;;;;;;;;;;;;;;;;;;5054696;28;19912;-77
2024/01/10 10:18:45;;;;;;;;;;;;;;;;;;5072682;28;19921;-77
2024/01/10 10:21:11;;;;;;;;;;;;;;;;;;5072402;28;19923;-77
2024/01/10 10:23:38;;;;;;;;;;;;;;;;;;5071947;28;19916;-77
2024/01/10 10:26:04;;;;;;;;;;;;;;;;;;5072861;28;19912;-77
2024/01/10 10:28:31;;;;;;;;;;;;;;;;;;5072263;28;19922;-77
2024/01/10 10:30:57;;;;;;;;;;;;;;;;;;5069896;28;19912;-78
2024/01/10 10:33:23;;;;;;;;;;;;;;;;;;5070778;28;19912;-77
2024/01/10 10:35:50;;;;;;;;;;;;;;;;;;5072349;28;19912;-77
2024/01/10 10:38:16;;;;;;;;;;;;;;;;;;5071981;28;19920;-78
2024/01/10 10:40:42;;;;;;;;;;;;;;;;;;5072255;28;20312;-77
2024/01/10 10:43:09;;;;;;;;;;;;;;;;;;5071478;28;19923;-78
2024/01/10 10:45:35;;;;;;;;;;;;;;;;;;5069802;28;19919;-76
2024/01/10 10:48:01;;;;;;;;;;;;;;;;;;5070926;28;19920;-78
2024/01/10 10:50:28;;;;;;;;;;;;;;;;;;5071874;28;19918;-77
2024/01/10 10:52:55;;;;;;;;;;;;;;;;;;5072097;28;19912;-77
2024/01/10 10:55:21;;;;;;;;;;;;;;;;;;5071071;28;19919;-78
2024/01/10 10:57:47;;;;;;;;;;;;;;;;;;5071790;28;19927;-80
2024/01/10 11:00:15;;;;;;;;;;;;;;;;;;5070629;28;19969;-77
2024/01/10 11:02:41;;;;;;;;;;;;;;;;;;5069879;28;19920;-77
2024/01/10 11:05:07;;;;;;;;;;;;;;;;;;5068410;28;20302;-77
2024/01/10 11:07:33;;;;;;;;;;;;;;;;;;5072006;28;19919;-76
2024/01/10 11:10:00;;;;;;;;;;;;;;;;;;5072653;28;19920;-76
2024/01/10 11:12:26;;;;;;;;;;;;;;;;;;5072698;28;20401;-77
2024/01/10 11:14:54;;;;;;;;;;;;;;;;;;5072858;28;20225;-76
2024/01/10 11:17:20;;;;;;;;;;;;;;;;;;5072556;28;19912;-77
2024/01/10 11:19:46;;;;;;;;;;;;;;;;;;5072298;28;20305;-77
2024/01/10 11:22:13;;;;;;;;;;;;;;;;;;5072558;28;19915;-77
2024/01/10 11:24:39;;;;;;;;;;;;;;;;;;5072646;28;19923;-76
2024/01/10 11:27:05;;;;;;;;;;;;;;;;;;5071850;28;19915;-76
2024/01/10 11:29:31;;;;;;;;;;;;;;;;;;5071933;28;20425;-77
2024/01/10 11:31:57;;;;;;;;;;;;;;;;;;5071701;28;20304;-77
2024/01/10 11:34:24;;;;;;;;;;;;;;;;;;5072099;28;19915;-76
2024/01/10 11:36:50;;;;;;;;;;;;;;;;;;5070961;28;20376;-77
2024/01/10 11:39:16;;;;;;;;;;;;;;;;;;5071468;28;19916;-76
2024/01/10 11:41:43;;;;;;;;;;;;;;;;;;5072322;28;19908;-77
2024/01/10 11:44:09;;;;;;;;;;;;;;;;;;5072408;28;19927;-76
2024/01/10 11:46:35;;;;;;;;;;;;;;;;;;5072245;28;20276;-76
2024/01/10 11:49:01;;;;;;;;;;;;;;;;;;5072179;28;19992;-77
2024/01/10 11:51:28;;;;;;;;;;;;;;;;;;5072591;28;19909;-77
2024/01/10 11:53:54;;;;;;;;;;;;;;;;;;5053751;28;19977;-77
2024/01/10 11:56:20;;;;;;;;;;;;;;;;;;5071945;28;19909;-78
2024/01/10 11:58:46;;;;;;;;;;;;;;;;;;5071983;28;19917;-77
2024/01/10 12:01:12;;;;;;;;;;;;;;;;;;5071908;28;20400;-75
2024/01/10 12:03:38;;;;;;;;;;;;;;;;;;5071885;28;20296;-77
2024/01/10 12:06:05;;;;;;;;;;;;;;;;;;5071784;28;20316;-77
2024/01/10 12:08:31;;;;;;;;;;;;;;;;;;5071205;28;19917;-76
2024/01/10 12:10:58;;;;;;;;;;;;;;;;;;5071551;28;19965;-77
2024/01/10 12:13:24;;;;;;;;;;;;;;;;;;5071812;28;20391;-77
2024/01/10 12:15:50;;;;;;;;;;;;;;;;;;5071712;28;19919;-77
2024/01/10 12:18:16;;;;;;;;;;;;;;;;;;5071311;28;19920;-76
2024/01/10 12:20:45;;;;;;;;;;;;;;;;;;5071750;28;20361;-77
2024/01/10 12:23:11;;;;;;;;;;;;;;;;;;5071676;28;19912;-77
2024/01/10 12:25:37;;;;;;;;;;;;;;;;;;5072040;28;19908;-77
2024/01/10 12:28:04;;;;;;;;;;;;;;;;;;5071356;28;20204;-77
2024/01/10 12:30:30;;;;;;;;;;;;;;;;;;5071703;28;19915;-77
2024/01/10 12:32:56;;;;;;;;;;;;;;;;;;5071244;28;20408;-77
2024/01/10 12:35:23;;;;;;;;;;;;;;;;;;5071779;28;19915;-77
2024/01/10 12:37:49;;;;;;;;;;;;;;;;;;5071614;28;19916;-77
2024/01/10 12:40:15;;;;;;;;;;;;;;;;;;5071783;28;19942;-77
2024/01/10 12:42:41;;;;;;;;;;;;;;;;;;5071304;28;20341;-77
2024/01/10 12:45:07;;;;;;;;;;;;;;;;;;5071911;28;19937;-77
2024/01/10 12:47:34;;;;;;;;;;;;;;;;;;5070859;28;19908;-77
2024/01/10 12:50:00;;;;;;;;;;;;;;;;;;5071296;28;19953;-77
2024/01/10 12:52:27;;;;;;;;;;;;;;;;;;5071526;28;19978;-76
2024/01/10 12:54:53;;;;;;;;;;;;;;;;;;5071265;28;19919;-77
2024/01/10 12:57:20;;;;;;;;;;;;;;;;;;5071154;28;19921;-77
2024/01/10 12:59:46;;;;;;;;;;;;;;;;;;5086798;28;20369;-77
2024/01/10 13:02:12;;;;;;;;;;;;;;;;;;5071055;28;20278;-77
2024/01/10 13:04:38;;;;;;;;;;;;;;;;;;5071809;28;19915;-77
2024/01/10 13:07:04;;;;;;;;;;;;;;;;;;5071772;28;19909;-77
2024/01/10 13:09:30;;;;;;;;;;;;;;;;;;5071368;28;19921;-77
2024/01/10 13:11:58;;;;;;;;;;;;;;;;;;5071468;28;20288;-78
2024/01/10 13:14:24;;;;;;;;;;;;;;;;;;5070853;28;19919;-77
2024/01/10 13:16:51;;;;;;;;;;;;;;;;;;5071456;28;19916;-77
2024/01/10 13:19:17;;;;;;;;;;;;;;;;;;5071105;28;19923;-77
2024/01/10 13:21:43;;;;;;;;;;;;;;;;;;5074294;28;19915;-78
2024/01/10 13:24:09;;;;;;;;;;;;;;;;;;5075212;28;19917;-77
2024/01/10 13:26:35;;;;;;;;;;;;;;;;;;5074794;28;19908;-77
2024/01/10 13:29:02;;;;;;;;;;;;;;;;;;5074497;28;19926;-78
2024/01/10 13:31:28;;;;;;;;;;;;;;;;;;5074703;28;20385;-77
2024/01/10 13:33:55;;;;;;;;;;;;;;;;;;5074761;28;19908;-77
2024/01/10 13:36:21;;;;;;;;;;;;;;;;;;5074975;28;19908;-77
2024/01/10 13:38:47;;;;;;;;;;;;;;;;;;5074864;28;19916;-77
2024/01/10 13:41:13;;;;;;;;;;;;;;;;;;5074435;28;20304;-76
2024/01/10 13:43:40;;;;;;;;;;;;;;;;;;5024965;28;19947;-77
2024/01/10 13:46:06;;;;;;;;;;;;;;;;;;5014800;28;19913;-77
2024/01/10 13:48:32;;;;;;;;;;;;;;;;;;5015155;28;19914;-77
2024/01/10 13:50:58;;;;;;;;;;;;;;;;;;5014732;28;19909;-78
2024/01/10 13:53:24;;;;;;;;;;;;;;;;;;5014572;28;19931;-77
2024/01/10 13:55:51;;;;;;;;;;;;;;;;;;5014522;28;19959;-77
2024/01/10 13:58:18;;;;;;;;;;;;;;;;;;5014482;28;19924;-77
2024/01/10 14:00:44;;;;;;;;;;;;;;;;;;5014614;28;19913;-76
2024/01/10 14:03:11;;;;;;;;;;;;;;;;;;5014313;28;19913;-75
2024/01/10 14:05:37;;;;;;;;;;;;;;;;;;5013700;28;19916;-76
2024/01/10 14:08:03;;;;;;;;;;;;;;;;;;5012793;28;19918;-76
2024/01/10 14:10:29;;;;;;;;;;;;;;;;;;5014585;28;19916;-77
2024/01/10 14:12:55;;;;;;;;;;;;;;;;;;5014223;28;20415;-76
2024/01/10 14:15:22;;;;;;;;;;;;;;;;;;5014678;28;19920;-78
2024/01/10 14:17:48;;;;;;;;;;;;;;;;;;5014196;28;19975;-78
2024/01/10 14:20:15;;;;;;;;;;;;;;;;;;5014121;28;19913;-77
2024/01/10 14:22:41;;;;;;;;;;;;;;;;;;5014378;28;19924;-76
2024/01/10 14:25:09;;;;;;;;;;;;;;;;;;5014466;28;19909;-77
2024/01/10 14:27:35;;;;;;;;;;;;;;;;;;5014217;28;19910;-76
2024/01/10 14:30:03;;;;;;;;;;;;;;;;;;5014378;28;19920;-75
2024/01/10 14:32:29;;;;;;;;;;;;;;;;;;5013209;28;19914;-76
2024/01/10 14:34:57;;;;;;;;;;;;;;;;;;5013921;28;19910;-76
2024/01/10 14:37:23;;;;;;;;;;;;;;;;;;5014187;28;19920;-76
2024/01/10 14:39:49;;;;;;;;;;;;;;;;;;5012338;28;19920;-76
2024/01/10 14:42:15;;;;;;;;;;;;;;;;;;5013643;28;19913;-76
2024/01/10 14:44:42;;;;;;;;;;;;;;;;;;5013906;28;19914;-77
2024/01/10 14:47:08;;;;;;;;;;;;;;;;;;5014272;28;19916;-76
2024/01/10 14:49:34;;;;;;;;;;;;;;;;;;5012564;28;19928;-75
2024/01/10 14:52:01;;;;;;;;;;;;;;;;;;5013574;28;19910;-77
2024/01/10 14:54:27;;;;;;;;;;;;;;;;;;5013360;28;19960;-77
2024/01/10 14:56:53;;;;;;;;;;;;;;;;;;5013293;28;19913;-77
2024/01/10 14:59:20;;;;;;;;;;;;;;;;;;5013373;28;19918;-76
2024/01/10 15:01:46;;;;;;;;;;;;;;;;;;5013399;28;19909;-77
2024/01/10 15:04:12;;;;;;;;;;;;;;;;;;5013599;28;19913;-76
2024/01/10 15:06:38;;;;;;;;;;;;;;;;;;5044955;28;19920;-76
2024/01/10 15:09:05;;;;;;;;;;;;;;;;;;5013464;28;20331;-77
2024/01/10 15:11:32;;;;;;;;;;;;;;;;;;5013375;28;19916;-77
2024/01/10 15:13:58;;;;;;;;;;;;;;;;;;5013232;28;19916;-77
2024/01/10 15:16:24;;;;;;;;;;;;;;;;;;5013371;28;19910;-76
2024/01/10 15:18:51;;;;;;;;;;;;;;;;;;5013077;28;19928;-76
2024/01/10 15:21:19;;;;;;;;;;;;;;;;;;5013298;28;19910;-76
2024/01/10 15:23:45;;;;;;;;;;;;;;;;;;5012681;28;19917;-76
2024/01/10 15:26:11;;;;;;;;;;;;;;;;;;5013114;28;19977;-76
2024/01/10 15:28:38;;;;;;;;;;;;;;;;;;5012908;28;19916;-76
2024/01/10 15:31:04;;;;;;;;;;;;;;;;;;5011801;28;19910;-76
2024/01/10 15:33:30;;;;;;;;;;;;;;;;;;5011970;28;19967;-77
2024/01/10 15:35:56;;;;;;;;;;;;;;;;;;5012613;28;19916;-75
2024/01/10 15:38:24;;;;;;;;;;;;;;;;;;5006512;28;19924;-76
2024/01/10 15:40:50;;;;;;;;;;;;;;;;;;4993187;28;19972;-76
2024/01/10 15:43:16;;;;;;;;;;;;;;;;;;5002498;28;19910;-77
2024/01/10 15:45:42;;;;;;;;;;;;;;;;;;5012890;28;19917;-77
2024/01/10 15:48:09;;;;;;;;;;;;;;;;;;5012866;28;19913;-77
2024/01/10 15:50:35;;;;;;;;;;;;;;;;;;5011933;28;19932;-76
2024/01/10 15:53:01;;;;;;;;;;;;;;;;;;5012777;28;19914;-75
2024/01/10 15:55:27;;;;;;;;;;;;;;;;;;5012414;28;20379;-76
2024/01/10 15:57:53;;;;;;;;;;;;;;;;;;5012726;28;19928;-76
2024/01/10 16:00:20;;;;;;;;;;;;;;;;;;5012955;28;19909;-77
2024/01/10 16:02:46;;;;;;;;;;;;;;;;;;5012627;28;19909;-76
2024/01/10 16:05:12;;;;;;;;;;;;;;;;;;5012628;28;20305;-76
2024/01/10 16:07:38;;;;;;;;;;;;;;;;;;5012742;28;19921;-77
2024/01/10 16:10:06;;;;;;;;;;;;;;;;;;5012020;28;19922;-76
2024/01/10 16:12:32;;;;;;;;;;;;;;;;;;5012721;28;19917;-76
2024/01/10 16:14:58;;;;;;;;;;;;;;;;;;5012574;28;19909;-76
2024/01/10 16:17:24;;;;;;;;;;;;;;;;;;5012435;28;19910;-77
2024/01/10 16:19:51;;;;;;;;;;;;;;;;;;5012491;28;19924;-77
2024/01/10 16:22:17;;;;;;;;;;;;;;;;;;5012662;28;19917;-76
2024/01/10 16:24:43;;;;;;;;;;;;;;;;;;5012066;28;20405;-76
2024/01/10 16:27:09;;;;;;;;;;;;;;;;;;5012750;28;19913;-77
2024/01/10 16:29:36;;;;;;;;;;;;;;;;;;5012224;28;19913;-76
2024/01/10 16:32:03;;;;;;;;;;;;;;;;;;5012532;28;19917;-76
2024/01/10 16:34:29;;;;;;;;;;;;;;;;;;5012309;28;19916;-76
2024/01/10 16:36:55;;;;;;;;;;;;;;;;;;5012550;28;20016;-76
2024/01/10 16:39:22;;;;;;;;;;;;;;;;;;5011971;28;19922;-76